createdAt,value
2022-12-14T10:07:01.052Z,65.38
2022-12-14T10:12:26.310Z,64.32
2022-12-14T10:17:53.679Z,63.97
2022-12-14T10:23:05.590Z,64.65
2022-12-14T10:28:18.898Z,64.31
2022-12-14T10:33:31.934Z,64.27
2022-12-14T10:38:50.620Z,64.43
2022-12-14T10:44:05.789Z,64.18
2022-12-14T10:49:21.870Z,64.27
2022-12-14T10:54:37.884Z,64.23
2022-12-14T11:00:07.815Z,63.68
2022-12-14T11:05:21.649Z,64.31
2022-12-14T11:10:36.229Z,64.27
2022-12-14T11:15:46.479Z,64.73
2022-12-14T11:20:59.822Z,64.36
2022-12-14T11:26:16.001Z,64.04
2022-12-14T11:31:31.891Z,64.49
2022-12-14T11:36:42.107Z,64.29
2022-12-14T11:42:19.500Z,64.15
2022-12-14T11:47:32.445Z,64.07
2022-12-14T11:52:48.470Z,64.01
2022-12-14T11:58:04.062Z,64.17
2022-12-14T12:03:27.841Z,64.15
2022-12-14T12:08:40.610Z,64.06
2022-12-14T12:24:55.119Z,64.47
2022-12-14T12:30:22.696Z,65.50
2022-12-14T12:35:43.105Z,65.28
2022-12-14T12:41:01.338Z,64.81
2022-12-14T12:46:17.623Z,64.86
2022-12-14T12:51:30.195Z,64.66
2022-12-14T12:56:49.475Z,65.00
2022-12-14T13:02:03.727Z,65.30
2022-12-14T13:07:21.007Z,64.91
2022-12-14T13:12:35.673Z,64.99
2022-12-14T13:17:51.197Z,64.44
2022-12-14T13:23:15.130Z,64.21
2022-12-14T13:28:58.568Z,64.27
2022-12-14T13:34:26.670Z,63.92
2022-12-14T13:39:59.258Z,64.13
2022-12-14T13:45:08.659Z,64.15
2022-12-14T13:50:36.538Z,64.60
2022-12-14T13:55:52.400Z,64.25
2022-12-14T14:01:06.898Z,64.31
2022-12-14T14:06:22.885Z,64.72
2022-12-14T14:11:58.681Z,64.94
2022-12-14T14:17:19.619Z,64.62
2022-12-14T14:22:31.439Z,64.38
2022-12-14T14:27:41.901Z,63.99
2022-12-14T14:38:35.235Z,63.60
2022-12-14T14:43:50.155Z,64.41
2022-12-14T14:48:58.339Z,63.77
2022-12-14T15:00:08.669Z,63.96
2022-12-14T15:11:02.519Z,63.61
2022-12-14T15:16:25.325Z,63.73
2022-12-14T15:21:38.629Z,63.47
2022-12-14T15:26:52.433Z,63.55
2022-12-14T15:32:05.761Z,63.75
2022-12-14T15:37:28.794Z,63.70
2022-12-14T15:42:48.628Z,63.52
2022-12-14T16:06:07.539Z,64.09
2022-12-14T16:11:25.765Z,64.11
2022-12-14T16:16:33.681Z,64.70
2022-12-14T16:21:44.286Z,64.45
2022-12-14T16:26:59.347Z,64.28
2022-12-14T16:32:09.688Z,63.83
2022-12-14T16:37:32.531Z,64.28
2022-12-14T16:42:40.910Z,63.95
2022-12-14T16:48:05.574Z,64.58
2022-12-14T16:53:25.277Z,64.27
2022-12-14T16:58:33.789Z,64.19
2022-12-14T17:03:41.574Z,63.94
2022-12-14T17:08:52.163Z,64.01
2022-12-14T17:13:59.546Z,64.39
2022-12-14T17:19:08.578Z,63.94
2022-12-14T17:24:20.801Z,64.34
2022-12-14T17:29:31.078Z,63.97
2022-12-14T17:34:38.911Z,64.04
2022-12-14T17:39:49.235Z,64.10
2022-12-14T17:45:00.990Z,64.12
2022-12-14T17:50:09.764Z,64.08
2022-12-14T17:55:23.700Z,64.27
2022-12-14T18:00:46.291Z,64.23
2022-12-14T18:05:55.299Z,64.17
2022-12-14T18:11:13.374Z,64.05
2022-12-14T18:16:23.887Z,64.07
2022-12-14T18:21:32.986Z,64.30
2022-12-14T18:26:43.351Z,64.18
2022-12-14T18:31:52.804Z,64.41
2022-12-14T18:37:00.720Z,64.43
2022-12-14T18:42:13.225Z,64.06
2022-12-14T18:47:41.388Z,64.12
2022-12-14T18:52:50.496Z,64.36
2022-12-14T18:58:02.084Z,65.22
2022-12-14T19:03:09.905Z,64.70
2022-12-14T19:08:17.812Z,64.18
2022-12-14T19:13:28.693Z,64.39
2022-12-14T19:18:36.486Z,63.87
2022-12-14T19:23:44.027Z,64.15
2022-12-14T19:28:54.591Z,64.24
2022-12-14T19:34:02.172Z,63.84
2022-12-14T19:39:09.816Z,63.89
2022-12-14T19:44:19.948Z,64.61
2022-12-14T19:49:27.531Z,64.36
2022-12-14T19:54:39.796Z,63.84
2022-12-14T19:59:50.023Z,64.20
2022-12-14T20:04:57.702Z,64.19
2022-12-14T20:10:05.597Z,64.21
2022-12-14T20:15:15.878Z,64.67
2022-12-14T20:20:23.890Z,64.48
2022-12-14T20:25:31.562Z,64.19
2022-12-14T20:30:45.149Z,63.95
2022-12-14T20:35:53.846Z,64.06
2022-12-14T20:41:07.370Z,64.17
2022-12-14T20:46:34.011Z,63.94
2022-12-14T20:51:42.821Z,64.04
2022-12-14T20:56:50.373Z,64.52
2022-12-14T21:02:00.768Z,64.66
2022-12-14T21:07:08.471Z,64.97
2022-12-14T21:12:25.168Z,64.92
2022-12-14T21:17:35.761Z,65.12
2022-12-14T21:22:43.531Z,65.25
2022-12-14T21:27:51.070Z,64.98
2022-12-14T21:33:01.291Z,65.41
2022-12-14T21:38:08.831Z,65.40
2022-12-14T21:43:16.367Z,64.98
2022-12-14T21:48:26.529Z,65.17
2022-12-14T21:53:35.566Z,64.58
2022-12-14T21:58:45.443Z,64.75
2022-12-14T22:03:57.866Z,64.82
2022-12-14T22:09:06.306Z,64.79
2022-12-14T22:14:14.803Z,64.46
2022-12-14T22:19:27.771Z,64.70
2022-12-14T22:24:35.612Z,64.54
2022-12-14T22:29:43.319Z,63.97
2022-12-14T22:34:53.497Z,63.96
2022-12-14T22:40:01.191Z,63.69
2022-12-14T22:45:10.033Z,63.84
2022-12-14T22:50:20.254Z,63.76
2022-12-14T22:55:28.206Z,63.74
2022-12-14T23:00:35.750Z,63.52
2022-12-14T23:05:45.937Z,63.48
2022-12-14T23:11:06.082Z,63.52
2022-12-14T23:16:26.178Z,63.69
2022-12-14T23:21:48.793Z,63.66
2022-12-14T23:27:09.830Z,63.91
2022-12-14T23:32:30.130Z,63.69
2022-12-14T23:37:52.688Z,63.99
2022-12-14T23:43:12.664Z,63.82
2022-12-14T23:48:32.632Z,64.05
2022-12-14T23:53:55.285Z,63.77
2022-12-14T23:59:17.677Z,63.78
